createdAt,value
2022-08-16T00:02:33.126Z,1.00
2022-08-16T00:05:00.764Z,1.00
2022-08-16T00:07:29.663Z,1.00
2022-08-16T00:09:58.008Z,1.00
2022-08-16T00:12:27.980Z,1.00
2022-08-16T00:14:57.140Z,1.00
2022-08-16T00:17:25.370Z,1.00
2022-08-16T00:19:55.102Z,1.00
2022-08-16T00:22:24.820Z,1.00
2022-08-16T00:24:55.741Z,1.00
2022-08-16T00:27:23.198Z,1.00
2022-08-16T00:30:00.543Z,10.80
2022-08-16T00:32:40.587Z,20.40
2022-08-16T00:35:15.492Z,36.50
2022-08-16T00:37:58.321Z,50.70
2022-08-16T00:40:50.797Z,59.60
2022-08-16T00:43:24.883Z,72.00
2022-08-16T00:46:34.935Z,79.80
2022-08-16T00:49:07.121Z,81.00
2022-08-16T00:51:45.136Z,86.60
2022-08-16T00:54:13.944Z,84.80
2022-08-16T00:56:58.554Z,83.90
2022-08-16T00:59:28.814Z,85.90
2022-08-16T01:01:56.302Z,99.90
2022-08-16T01:04:30.537Z,92.00
2022-08-16T01:07:02.152Z,93.20
2022-08-16T01:09:37.405Z,96.20
2022-08-16T01:12:08.573Z,99.90
2022-08-16T01:14:50.688Z,99.90
2022-08-16T01:17:24.256Z,99.90
2022-08-16T01:19:59.009Z,99.90
2022-08-16T01:22:52.510Z,99.90
2022-08-16T01:25:34.069Z,99.90
2022-08-16T01:28:09.566Z,99.90
2022-08-16T01:30:50.032Z,99.90
2022-08-16T01:33:19.535Z,99.90
2022-08-16T01:35:52.685Z,99.90
2022-08-16T01:38:28.323Z,99.90
2022-08-16T01:41:06.924Z,99.90
2022-08-16T01:43:36.962Z,99.90
2022-08-16T01:46:37.791Z,99.90
2022-08-16T01:48:59.987Z,99.90
2022-08-16T01:51:28.565Z,99.90
2022-08-16T01:53:57.169Z,99.90
2022-08-16T01:56:30.227Z,99.90
2022-08-16T01:59:00.387Z,99.90
2022-08-16T02:01:28.668Z,99.90
2022-08-16T02:03:58.134Z,99.90
2022-08-16T02:06:34.395Z,99.90
2022-08-16T02:09:07.156Z,99.90
2022-08-16T02:11:47.523Z,99.90
2022-08-16T02:14:18.166Z,99.90
2022-08-16T02:16:45.943Z,99.90
2022-08-16T02:19:16.109Z,99.90
2022-08-16T02:22:07.728Z,99.90
2022-08-16T02:24:40.988Z,99.90
2022-08-16T02:27:09.849Z,99.90
2022-08-16T02:29:37.090Z,99.90
2022-08-16T02:32:49.127Z,99.90
2022-08-16T02:34:56.506Z,99.90
2022-08-16T02:37:24.328Z,99.90
2022-08-16T02:40:13.189Z,99.90
2022-08-16T02:42:45.477Z,99.90
2022-08-16T02:45:15.803Z,99.90
2022-08-16T02:48:00.545Z,99.90
2022-08-16T02:51:05.965Z,99.90
2022-08-16T02:53:18.041Z,99.90
2022-08-16T02:55:45.537Z,99.90
2022-08-16T02:58:18.282Z,99.90
2022-08-16T03:00:45.429Z,99.90
2022-08-16T03:03:17.869Z,99.90
2022-08-16T03:05:52.223Z,99.90
2022-08-16T03:08:51.316Z,99.90
2022-08-16T03:11:17.806Z,99.90
2022-08-16T03:13:53.252Z,99.90
2022-08-16T03:16:37.761Z,99.90
2022-08-16T03:19:08.379Z,99.90
2022-08-16T03:21:38.379Z,99.90
2022-08-16T03:24:29.280Z,99.90
2022-08-16T03:26:58.995Z,99.90
2022-08-16T03:29:30.284Z,99.90
2022-08-16T03:32:01.519Z,99.90
2022-08-16T03:34:30.594Z,99.90
2022-08-16T03:36:58.311Z,99.90
2022-08-16T03:39:25.536Z,99.90
2022-08-16T03:41:59.191Z,99.90
2022-08-16T03:44:44.208Z,99.90
2022-08-16T03:47:19.208Z,99.90
2022-08-16T03:49:51.223Z,99.90
2022-08-16T03:52:18.138Z,99.90
2022-08-16T03:54:57.774Z,99.90
2022-08-16T03:57:31.958Z,99.90
2022-08-16T04:00:35.875Z,99.90
2022-08-16T04:03:15.745Z,99.90
2022-08-16T04:05:50.833Z,99.90
2022-08-16T04:08:22.738Z,99.90
2022-08-16T04:10:58.951Z,99.90
2022-08-16T04:14:01.799Z,99.90
2022-08-16T04:16:27.416Z,99.90
2022-08-16T04:19:02.726Z,99.90
2022-08-16T04:21:46.215Z,99.90
2022-08-16T04:24:18.925Z,99.90
2022-08-16T04:26:46.848Z,99.90
2022-08-16T04:29:21.623Z,99.90
2022-08-16T04:31:56.740Z,99.90
2022-08-16T04:34:32.448Z,99.90
2022-08-16T04:37:01.460Z,99.90
2022-08-16T04:39:36.635Z,99.90
2022-08-16T04:42:14.915Z,99.90
2022-08-16T04:44:54.448Z,99.90
2022-08-16T04:47:35.799Z,99.90
2022-08-16T04:50:18.312Z,99.90
2022-08-16T04:52:59.269Z,99.90
2022-08-16T04:55:37.565Z,99.90
2022-08-16T04:58:46.008Z,99.90
2022-08-16T05:00:53.892Z,99.90
2022-08-16T05:03:22.701Z,99.90
2022-08-16T05:05:59.154Z,99.90
2022-08-16T05:08:32.682Z,99.90
2022-08-16T05:11:12.003Z,99.90
2022-08-16T05:13:42.801Z,99.90
2022-08-16T05:16:19.968Z,99.90
2022-08-16T05:18:53.964Z,99.90
2022-08-16T05:21:27.054Z,99.90
2022-08-16T05:24:02.174Z,99.90
2022-08-16T05:26:33.971Z,99.90
2022-08-16T05:29:03.817Z,99.90
2022-08-16T05:31:31.740Z,99.90
2022-08-16T05:34:03.233Z,99.90
2022-08-16T05:36:34.017Z,99.90
2022-08-16T05:39:06.137Z,99.90
2022-08-16T05:41:33.012Z,99.90
2022-08-16T05:44:23.958Z,99.90
2022-08-16T05:47:00.296Z,99.90
2022-08-16T05:49:39.224Z,99.90
2022-08-16T05:52:13.227Z,99.90
2022-08-16T05:54:47.255Z,99.90
2022-08-16T05:57:18.230Z,99.90
2022-08-16T05:59:50.640Z,99.90
2022-08-16T06:02:30.703Z,99.90
2022-08-16T06:05:02.010Z,99.90
2022-08-16T06:07:29.724Z,63.70
2022-08-16T06:10:07.495Z,43.70
2022-08-16T06:12:37.077Z,26.00
2022-08-16T06:15:11.380Z,19.40
2022-08-16T06:17:44.362Z,15.10
2022-08-16T06:20:25.460Z,1.00
2022-08-16T06:23:02.965Z,1.00
2022-08-16T06:25:39.173Z,1.00
2022-08-16T06:28:16.928Z,1.00
2022-08-16T06:30:45.540Z,1.00
2022-08-16T06:33:22.096Z,1.00
2022-08-16T06:35:57.722Z,1.00
2022-08-16T06:38:33.601Z,1.00
2022-08-16T06:41:13.448Z,1.00
2022-08-16T06:43:41.952Z,1.00
2022-08-16T06:46:31.298Z,1.00
2022-08-16T06:49:05.524Z,1.00
2022-08-16T06:51:46.247Z,1.00
2022-08-16T06:54:17.908Z,1.00
2022-08-16T06:56:44.799Z,1.00
2022-08-16T06:59:14.617Z,1.00
2022-08-16T07:01:53.612Z,1.00
2022-08-16T07:04:32.750Z,1.00
2022-08-16T07:07:14.527Z,1.00
2022-08-16T07:09:42.280Z,1.00
2022-08-16T07:12:09.424Z,1.00
2022-08-16T07:14:40.282Z,1.00
2022-08-16T07:17:11.258Z,1.00
2022-08-16T07:20:29.801Z,1.00
2022-08-16T07:22:52.843Z,1.00
2022-08-16T07:25:28.787Z,1.00
2022-08-16T07:27:56.307Z,1.00
2022-08-16T07:30:45.647Z,1.00
2022-08-16T07:33:53.696Z,1.00
2022-08-16T07:36:29.373Z,1.00
2022-08-16T07:38:58.150Z,1.00
2022-08-16T07:41:27.753Z,1.00
2022-08-16T07:43:59.928Z,1.00
2022-08-16T07:46:37.465Z,1.00
2022-08-16T07:49:14.748Z,1.00
2022-08-16T07:51:42.279Z,1.00
2022-08-16T07:54:14.470Z,1.00
2022-08-16T07:56:50.145Z,1.00
2022-08-16T07:59:17.516Z,1.00
2022-08-16T08:01:44.615Z,1.00
2022-08-16T08:04:13.250Z,1.00
2022-08-16T08:06:42.613Z,1.00
2022-08-16T08:09:14.468Z,1.00
2022-08-16T08:11:43.127Z,1.00
2022-08-16T08:14:30.379Z,1.00
2022-08-16T08:17:01.338Z,1.00
2022-08-16T08:19:30.137Z,1.00
2022-08-16T08:22:01.345Z,1.00
2022-08-16T08:24:47.801Z,1.00
2022-08-16T08:27:22.621Z,1.00
2022-08-16T08:30:49.184Z,1.00
2022-08-16T08:32:59.903Z,1.00
2022-08-16T08:35:28.449Z,1.00
2022-08-16T08:37:56.740Z,1.00
2022-08-16T08:40:28.702Z,1.00
2022-08-16T08:43:00.632Z,1.00
2022-08-16T08:45:48.415Z,1.00
2022-08-16T08:48:34.219Z,1.00
2022-08-16T08:51:09.922Z,1.00
2022-08-16T08:53:57.661Z,1.00
2022-08-16T08:56:29.968Z,1.00
2022-08-16T08:59:13.315Z,1.00
2022-08-16T09:01:56.706Z,1.00
2022-08-16T09:04:28.697Z,1.00
2022-08-16T09:06:58.486Z,1.00
2022-08-16T09:09:33.183Z,1.00
2022-08-16T09:12:06.280Z,1.00
2022-08-16T09:14:49.331Z,1.00
2022-08-16T09:17:38.342Z,1.00
2022-08-16T09:20:07.769Z,1.00
2022-08-16T09:22:35.240Z,1.00
2022-08-16T09:25:09.929Z,1.00
2022-08-16T09:27:46.674Z,1.00
2022-08-16T09:30:34.729Z,1.00
2022-08-16T09:33:11.540Z,1.00
2022-08-16T09:35:39.044Z,1.00
2022-08-16T09:38:08.427Z,1.00
2022-08-16T09:40:43.767Z,1.00
2022-08-16T09:43:37.683Z,1.00
2022-08-16T09:46:00.055Z,1.00
2022-08-16T09:48:44.364Z,1.00
2022-08-16T09:51:13.254Z,1.00
2022-08-16T09:53:40.907Z,1.00
2022-08-16T09:56:22.975Z,1.00
2022-08-16T09:59:05.154Z,1.00
2022-08-16T10:01:43.494Z,1.00
2022-08-16T10:04:30.948Z,1.00
2022-08-16T10:07:02.502Z,1.00
2022-08-16T10:09:53.665Z,1.00
2022-08-16T10:12:43.369Z,1.00
2022-08-16T10:15:20.985Z,1.00
2022-08-16T10:18:00.564Z,1.00
2022-08-16T10:20:34.537Z,1.00
2022-08-16T10:23:07.196Z,1.00
2022-08-16T10:27:21.946Z,1.00
2022-08-16T10:28:29.907Z,1.00
2022-08-16T10:30:59.198Z,1.00
2022-08-16T10:33:29.301Z,1.00
2022-08-16T10:36:03.004Z,1.00
2022-08-16T10:38:32.809Z,1.00
2022-08-16T10:41:00.694Z,1.00
2022-08-16T10:43:31.033Z,1.00
2022-08-16T10:46:00.939Z,1.00
2022-08-16T10:48:29.387Z,1.00
2022-08-16T10:50:58.688Z,1.00
2022-08-16T10:53:32.514Z,1.00
2022-08-16T10:56:06.417Z,1.00
2022-08-16T10:58:52.913Z,1.00
2022-08-16T11:01:39.804Z,1.00
2022-08-16T11:05:04.686Z,1.00
2022-08-16T11:07:43.386Z,1.00
2022-08-16T11:09:43.729Z,1.00
2022-08-16T11:12:13.729Z,1.00
2022-08-16T11:15:11.308Z,1.00
2022-08-16T11:17:28.479Z,1.00
2022-08-16T11:20:01.586Z,1.00
2022-08-16T11:22:50.569Z,1.00
2022-08-16T11:28:09.951Z,1.00
2022-08-16T11:30:39.387Z,1.00
2022-08-16T11:33:08.208Z,1.00
2022-08-16T11:35:43.755Z,1.00
2022-08-16T11:38:47.073Z,1.00
2022-08-16T11:41:04.072Z,1.00
2022-08-16T11:43:34.660Z,1.00
2022-08-16T11:46:44.879Z,1.00
2022-08-16T11:48:55.103Z,1.00
2022-08-16T11:51:22.956Z,1.00
2022-08-16T11:53:49.707Z,1.00
2022-08-16T11:56:28.559Z,1.00
2022-08-16T11:59:06.331Z,1.00
2022-08-16T12:01:44.515Z,1.00
2022-08-16T12:04:22.368Z,1.00
2022-08-16T12:06:50.179Z,1.00
2022-08-16T12:09:20.687Z,1.00
2022-08-16T12:11:47.451Z,1.00
2022-08-16T12:14:20.032Z,1.00
2022-08-16T12:16:55.632Z,1.00
2022-08-16T12:19:33.626Z,1.00
2022-08-16T12:22:01.040Z,1.00
2022-08-16T12:24:32.922Z,1.00
2022-08-16T12:27:00.181Z,1.00
2022-08-16T12:29:29.481Z,1.00
2022-08-16T12:32:01.046Z,1.00
2022-08-16T12:34:50.755Z,1.00
2022-08-16T12:37:20.582Z,1.00
2022-08-16T12:39:51.208Z,1.00
2022-08-16T12:42:19.438Z,1.00
2022-08-16T12:44:47.481Z,1.00
2022-08-16T12:47:32.735Z,1.00
2022-08-16T12:49:59.504Z,1.00
2022-08-16T12:52:32.835Z,1.00
2022-08-16T12:55:01.953Z,1.00
2022-08-16T12:57:36.242Z,1.00
2022-08-16T13:00:11.011Z,1.00
2022-08-16T13:02:37.861Z,1.00
2022-08-16T13:05:06.897Z,1.00
2022-08-16T13:07:42.536Z,1.00
2022-08-16T13:10:21.113Z,1.00
2022-08-16T13:13:05.800Z,1.00
2022-08-16T13:15:42.014Z,1.00
2022-08-16T13:18:32.465Z,1.00
2022-08-16T13:21:03.460Z,1.00
2022-08-16T13:23:30.247Z,1.00
2022-08-16T13:25:58.331Z,1.00
2022-08-16T13:28:25.667Z,1.00
2022-08-16T13:30:55.761Z,1.00
2022-08-16T13:33:30.581Z,1.00
2022-08-16T13:36:00.120Z,1.00
2022-08-16T13:38:36.492Z,1.00
2022-08-16T13:41:08.653Z,1.00
2022-08-16T13:43:36.818Z,1.00
2022-08-16T13:46:04.407Z,1.00
2022-08-16T13:48:42.673Z,1.00
2022-08-16T13:51:17.061Z,1.00
2022-08-16T13:53:49.564Z,1.00
2022-08-16T13:56:25.206Z,1.00
2022-08-16T13:58:54.959Z,1.00
2022-08-16T14:01:22.708Z,1.00
2022-08-16T14:03:50.452Z,1.00
2022-08-16T14:06:21.834Z,1.00
2022-08-16T14:08:59.039Z,1.00
2022-08-16T14:11:33.929Z,1.00
2022-08-16T14:14:00.802Z,1.00
2022-08-16T14:16:33.950Z,1.00
2022-08-16T14:19:02.318Z,1.00
2022-08-16T14:21:35.256Z,1.00
2022-08-16T14:24:07.877Z,1.00
2022-08-16T14:26:43.302Z,1.00
2022-08-16T14:29:11.133Z,1.00
2022-08-16T14:31:39.735Z,1.00
2022-08-16T14:34:07.573Z,1.00
2022-08-16T14:36:37.979Z,1.00
2022-08-16T14:39:09.152Z,1.00
2022-08-16T14:41:39.484Z,1.00
2022-08-16T14:44:07.626Z,1.00
2022-08-16T14:46:36.079Z,1.00
2022-08-16T14:49:03.191Z,1.00
2022-08-16T14:51:29.968Z,1.00
2022-08-16T14:53:59.578Z,1.00
2022-08-16T14:56:38.612Z,1.00
2022-08-16T14:59:10.857Z,1.00
2022-08-16T15:01:58.901Z,1.00
2022-08-16T15:04:39.759Z,1.00
2022-08-16T15:07:13.261Z,1.00
2022-08-16T15:09:44.714Z,1.00
2022-08-16T15:12:32.847Z,1.00
2022-08-16T15:15:04.621Z,1.00
2022-08-16T15:17:41.655Z,1.00
2022-08-16T15:20:11.974Z,1.00
2022-08-16T15:22:45.014Z,1.00
2022-08-16T15:25:27.780Z,1.00
2022-08-16T15:27:57.302Z,1.00
2022-08-16T15:30:47.756Z,1.00
2022-08-16T15:33:19.571Z,1.00
2022-08-16T15:35:50.018Z,1.00
2022-08-16T15:38:31.677Z,1.00
2022-08-16T15:41:04.028Z,1.00
2022-08-16T15:43:39.209Z,1.00
2022-08-16T15:46:54.258Z,1.00
2022-08-16T15:49:09.759Z,1.00
2022-08-16T15:51:39.275Z,1.00
2022-08-16T15:54:20.913Z,1.00
2022-08-16T15:56:55.197Z,1.00
2022-08-16T15:59:27.144Z,1.00
2022-08-16T16:01:55.939Z,1.00
2022-08-16T16:04:25.431Z,1.00
2022-08-16T16:06:55.269Z,1.00
2022-08-16T16:09:34.709Z,1.00
2022-08-16T16:12:16.408Z,1.00
2022-08-16T16:14:51.771Z,1.00
2022-08-16T16:17:18.442Z,1.00
2022-08-16T16:19:45.110Z,1.00
2022-08-16T16:22:17.407Z,1.00
2022-08-16T16:24:46.986Z,1.00
2022-08-16T16:27:14.154Z,1.00
2022-08-16T16:29:42.838Z,1.00
2022-08-16T16:32:13.517Z,1.00
2022-08-16T16:34:43.111Z,1.00
2022-08-16T16:37:10.354Z,1.00
2022-08-16T16:39:37.626Z,1.00
2022-08-16T16:42:05.726Z,1.00
2022-08-16T16:44:33.710Z,1.00
2022-08-16T16:47:03.790Z,1.00
2022-08-16T16:49:32.853Z,1.00
2022-08-16T16:52:07.264Z,1.00
2022-08-16T16:54:35.502Z,1.00
2022-08-16T16:57:02.416Z,1.00
2022-08-16T16:59:29.281Z,1.00
2022-08-16T17:02:38.742Z,1.00
2022-08-16T17:04:46.395Z,1.00
2022-08-16T17:07:14.540Z,1.00
2022-08-16T17:12:46.797Z,1.00
2022-08-16T17:18:02.093Z,1.00
2022-08-16T17:20:48.362Z,1.00
2022-08-16T17:23:15.902Z,1.00
2022-08-16T17:25:46.585Z,1.00
2022-08-16T17:28:57.829Z,1.00
2022-08-16T17:31:07.442Z,1.00
2022-08-16T17:33:37.040Z,1.00
2022-08-16T17:36:06.178Z,1.00
2022-08-16T17:38:44.134Z,1.00
2022-08-16T17:39:25.992Z,1.00
2022-08-16T17:39:28.375Z,1.00
2022-08-16T17:41:15.655Z,1.00
2022-08-16T17:43:45.081Z,1.00
2022-08-16T17:46:41.251Z,1.00
2022-08-16T17:49:02.216Z,1.00
2022-08-16T17:51:29.666Z,1.00
2022-08-16T17:53:56.929Z,1.00
2022-08-16T17:56:24.188Z,1.00
2022-08-16T17:58:51.637Z,1.00
2022-08-16T18:01:24.209Z,1.00
2022-08-16T18:04:07.712Z,1.00
2022-08-16T18:06:37.049Z,1.00
2022-08-16T18:09:04.289Z,1.00
2022-08-16T18:11:40.980Z,1.00
2022-08-16T18:14:08.857Z,1.00
2022-08-16T18:16:35.736Z,1.00
2022-08-16T18:19:02.591Z,1.00
2022-08-16T18:21:48.236Z,1.00
2022-08-16T18:24:15.130Z,1.00
2022-08-16T18:26:42.055Z,1.00
2022-08-16T18:29:14.781Z,1.00
2022-08-16T18:31:41.746Z,1.00
2022-08-16T18:34:08.438Z,1.00
2022-08-16T18:36:35.259Z,1.00
2022-08-16T18:39:02.490Z,1.00
2022-08-16T18:41:30.419Z,1.00
2022-08-16T18:44:23.201Z,1.00
2022-08-16T18:46:45.901Z,1.00
2022-08-16T18:49:18.307Z,1.00
2022-08-16T18:51:45.510Z,1.00
2022-08-16T18:54:16.295Z,1.00
2022-08-16T18:56:56.955Z,1.00
2022-08-16T18:59:26.132Z,1.00
2022-08-16T19:01:53.257Z,1.00
2022-08-16T19:04:56.721Z,1.00
2022-08-16T19:07:13.667Z,1.00
2022-08-16T19:09:40.437Z,1.00
2022-08-16T19:12:07.617Z,1.00
2022-08-16T19:14:34.309Z,1.00
2022-08-16T19:17:01.215Z,1.00
2022-08-16T19:19:28.005Z,1.00
2022-08-16T19:21:54.805Z,1.00
2022-08-16T19:24:21.491Z,1.00
2022-08-16T19:26:49.472Z,1.00
2022-08-16T19:29:16.151Z,1.00
2022-08-16T19:31:44.305Z,1.00
2022-08-16T19:34:13.131Z,1.00
2022-08-16T19:36:40.734Z,1.00
2022-08-16T19:39:13.643Z,1.00
2022-08-16T19:41:52.099Z,1.00
2022-08-16T19:44:22.331Z,1.00
2022-08-16T19:46:52.519Z,1.00
2022-08-16T19:49:19.340Z,1.00
2022-08-16T19:51:46.944Z,1.00
2022-08-16T19:54:13.965Z,1.00
2022-08-16T19:56:40.678Z,1.00
2022-08-16T19:59:39.504Z,1.00
2022-08-16T20:01:55.321Z,1.00
2022-08-16T20:04:23.486Z,1.00
2022-08-16T20:06:52.450Z,1.00
2022-08-16T20:09:20.150Z,1.00
2022-08-16T20:11:48.696Z,1.00
2022-08-16T20:14:24.084Z,1.00
2022-08-16T20:16:58.800Z,1.00
2022-08-16T20:19:28.240Z,1.00
2022-08-16T20:21:56.775Z,1.00
2022-08-16T20:24:40.179Z,1.00
2022-08-16T20:27:09.665Z,1.00
2022-08-16T20:29:38.951Z,1.00
2022-08-16T20:32:07.577Z,1.00
2022-08-16T20:34:35.304Z,1.00
2022-08-16T20:37:02.012Z,1.00
2022-08-16T20:39:28.799Z,1.00
2022-08-16T20:41:55.562Z,1.00
2022-08-16T20:44:22.821Z,1.00
2022-08-16T20:46:51.647Z,1.00
2022-08-16T20:49:18.327Z,1.00
2022-08-16T20:51:50.769Z,1.00
2022-08-16T20:54:20.616Z,1.00
2022-08-16T20:56:47.391Z,1.00
2022-08-16T20:59:14.122Z,1.00
2022-08-16T21:01:46.761Z,1.00
2022-08-16T21:08:52.681Z,1.00
2022-08-16T21:11:37.094Z,1.00
2022-08-16T21:14:04.955Z,1.00
2022-08-16T21:17:10.853Z,1.00
2022-08-16T21:19:44.942Z,1.00
2022-08-16T21:22:43.527Z,1.00
2022-08-16T21:29:45.755Z,1.00
2022-08-16T21:32:20.061Z,1.00
2022-08-16T21:35:06.651Z,1.00
2022-08-16T21:37:33.565Z,1.00
2022-08-16T21:40:00.653Z,1.00
2022-08-16T21:42:27.424Z,1.00
2022-08-16T21:44:54.465Z,1.00
2022-08-16T21:47:21.286Z,1.00
2022-08-16T21:49:48.003Z,1.00
2022-08-16T21:52:22.685Z,1.00
2022-08-16T21:54:56.137Z,1.00
2022-08-16T21:57:23.818Z,1.00
2022-08-16T21:59:55.344Z,1.00
2022-08-16T22:02:23.691Z,1.00
2022-08-16T22:04:51.563Z,1.00
2022-08-16T22:07:18.736Z,1.00
2022-08-16T22:09:47.300Z,1.00
2022-08-16T22:12:24.270Z,1.00
2022-08-16T22:14:51.230Z,1.00
2022-08-16T22:17:18.054Z,1.00
2022-08-16T22:19:44.794Z,1.00
2022-08-16T22:22:12.326Z,1.00
2022-08-16T22:24:39.062Z,1.00
2022-08-16T22:27:06.102Z,1.00
2022-08-16T22:29:32.793Z,1.00
2022-08-16T22:32:02.392Z,1.00
2022-08-16T22:34:30.230Z,1.00
2022-08-16T22:36:57.489Z,1.00
2022-08-16T22:39:24.279Z,1.00
2022-08-16T22:41:51.974Z,1.00
2022-08-16T22:44:18.989Z,1.00
2022-08-16T22:46:47.073Z,1.00
2022-08-16T22:49:14.861Z,1.00
2022-08-16T22:51:41.891Z,1.00
2022-08-16T22:54:47.414Z,1.00
2022-08-16T22:56:57.295Z,1.00
2022-08-16T22:59:25.148Z,1.00
2022-08-16T23:01:51.970Z,1.00
2022-08-16T23:04:18.715Z,1.00
2022-08-16T23:06:45.440Z,1.00
2022-08-16T23:09:12.137Z,1.00
2022-08-16T23:11:39.101Z,1.00
2022-08-16T23:14:05.772Z,1.00
2022-08-16T23:16:35.064Z,1.00
2022-08-16T23:19:05.125Z,1.00
2022-08-16T23:21:32.751Z,1.00
2022-08-16T23:23:59.936Z,1.00
2022-08-16T23:26:44.721Z,1.00
2022-08-16T23:29:21.170Z,1.00
2022-08-16T23:31:56.119Z,1.00
2022-08-16T23:34:23.390Z,1.00
2022-08-16T23:36:50.321Z,1.00
2022-08-16T23:39:17.030Z,1.00
2022-08-16T23:41:44.476Z,1.00
2022-08-16T23:44:56.185Z,1.00
2022-08-16T23:46:58.010Z,1.00
2022-08-16T23:50:01.794Z,1.00
2022-08-16T23:52:11.771Z,1.00
2022-08-16T23:54:38.659Z,1.00
2022-08-16T23:57:05.404Z,1.00
2022-08-16T23:59:41.097Z,1.00
